sensor_id;sensor_type;location;lat;lon;timestamp;temperature;humidity
45803;DHT22;31504;51.716;9.184;2023-03-20T00:01:56;19.60;51.70
45803;DHT22;31504;51.716;9.184;2023-03-20T00:04:57;19.60;51.70
45803;DHT22;31504;51.716;9.184;2023-03-20T00:07:57;19.60;51.80
45803;DHT22;31504;51.716;9.184;2023-03-20T00:10:58;19.60;51.70
45803;DHT22;31504;51.716;9.184;2023-03-20T00:14:00;19.60;51.70
45803;DHT22;31504;51.716;9.184;2023-03-20T00:17:03;19.60;51.70
45803;DHT22;31504;51.716;9.184;2023-03-20T00:20:12;19.60;51.90
45803;DHT22;31504;51.716;9.184;2023-03-20T00:23:13;19.60;51.80
45803;DHT22;31504;51.716;9.184;2023-03-20T00:26:17;19.60;51.70
45803;DHT22;31504;51.716;9.184;2023-03-20T00:29:20;19.60;51.80
45803;DHT22;31504;51.716;9.184;2023-03-20T00:32:21;19.60;51.80
45803;DHT22;31504;51.716;9.184;2023-03-20T00:35:26;19.60;51.70
45803;DHT22;31504;51.716;9.184;2023-03-20T00:38:27;19.60;51.70
45803;DHT22;31504;51.716;9.184;2023-03-20T00:41:28;19.60;51.70
45803;DHT22;31504;51.716;9.184;2023-03-20T00:44:37;19.60;51.70
45803;DHT22;31504;51.716;9.184;2023-03-20T00:47:38;19.60;51.70
45803;DHT22;31504;51.716;9.184;2023-03-20T00:50:41;19.60;51.70
45803;DHT22;31504;51.716;9.184;2023-03-20T00:53:41;19.60;51.70
45803;DHT22;31504;51.716;9.184;2023-03-20T00:59:58;19.60;51.70
45803;DHT22;31504;51.716;9.184;2023-03-20T01:03:00;19.60;51.70
45803;DHT22;31504;51.716;9.184;2023-03-20T01:06:01;19.60;51.80
45803;DHT22;31504;51.716;9.184;2023-03-20T01:09:02;19.60;51.80
45803;DHT22;31504;51.716;9.184;2023-03-20T01:12:03;19.60;51.80
45803;DHT22;31504;51.716;9.184;2023-03-20T01:15:09;19.60;51.80
45803;DHT22;31504;51.716;9.184;2023-03-20T01:18:14;19.60;51.80
45803;DHT22;31504;51.716;9.184;2023-03-20T01:21:15;19.60;51.80
45803;DHT22;31504;51.716;9.184;2023-03-20T01:24:15;19.60;51.80
45803;DHT22;31504;51.716;9.184;2023-03-20T01:27:17;19.60;51.80
45803;DHT22;31504;51.716;9.184;2023-03-20T01:30:22;19.60;51.80
45803;DHT22;31504;51.716;9.184;2023-03-20T01:33:23;19.60;51.90
45803;DHT22;31504;51.716;9.184;2023-03-20T01:36:25;19.60;51.80
45803;DHT22;31504;51.716;9.184;2023-03-20T01:39:31;19.60;51.90
45803;DHT22;31504;51.716;9.184;2023-03-20T01:42:32;19.60;51.80
45803;DHT22;31504;51.716;9.184;2023-03-20T01:45:33;19.60;51.90
45803;DHT22;31504;51.716;9.184;2023-03-20T01:48:55;19.60;51.90
45803;DHT22;31504;51.716;9.184;2023-03-20T01:51:55;19.60;51.80
45803;DHT22;31504;51.716;9.184;2023-03-20T01:54:56;19.60;51.90
45803;DHT22;31504;51.716;9.184;2023-03-20T01:57:56;19.60;51.90
45803;DHT22;31504;51.716;9.184;2023-03-20T02:00:58;19.60;51.90
45803;DHT22;31504;51.716;9.184;2023-03-20T02:03:59;19.60;51.90
45803;DHT22;31504;51.716;9.184;2023-03-20T02:07:00;19.60;52.00
45803;DHT22;31504;51.716;9.184;2023-03-20T02:10:06;19.60;52.00
45803;DHT22;31504;51.716;9.184;2023-03-20T02:13:07;19.60;52.10
45803;DHT22;31504;51.716;9.184;2023-03-20T02:16:11;19.60;52.00
45803;DHT22;31504;51.716;9.184;2023-03-20T02:19:23;19.60;51.90
45803;DHT22;31504;51.716;9.184;2023-03-20T02:31:54;19.60;52.00
45803;DHT22;31504;51.716;9.184;2023-03-20T02:35:19;19.60;52.60
45803;DHT22;31504;51.716;9.184;2023-03-20T02:41:29;19.60;51.90
45803;DHT22;31504;51.716;9.184;2023-03-20T02:51:05;19.60;52.00
45803;DHT22;31504;51.716;9.184;2023-03-20T02:57:12;19.60;52.00
45803;DHT22;31504;51.716;9.184;2023-03-20T03:00:25;19.60;52.00
45803;DHT22;31504;51.716;9.184;2023-03-20T03:03:47;19.60;52.10
45803;DHT22;31504;51.716;9.184;2023-03-20T03:06:49;19.60;52.10
45803;DHT22;31504;51.716;9.184;2023-03-20T03:13:11;19.60;52.10
45803;DHT22;31504;51.716;9.184;2023-03-20T03:16:14;19.60;52.00
45803;DHT22;31504;51.716;9.184;2023-03-20T03:19:20;19.60;51.90
45803;DHT22;31504;51.716;9.184;2023-03-20T03:22:22;19.80;51.80
45803;DHT22;31504;51.716;9.184;2023-03-20T03:25:24;19.80;51.50
45803;DHT22;31504;51.716;9.184;2023-03-20T03:28:34;19.90;51.50
45803;DHT22;31504;51.716;9.184;2023-03-20T03:31:36;19.90;51.40
45803;DHT22;31504;51.716;9.184;2023-03-20T03:34:37;19.90;51.40
45803;DHT22;31504;51.716;9.184;2023-03-20T03:37:48;19.90;51.30
45803;DHT22;31504;51.716;9.184;2023-03-20T03:41:03;19.90;51.40
45803;DHT22;31504;51.716;9.184;2023-03-20T03:44:13;19.90;51.20
45803;DHT22;31504;51.716;9.184;2023-03-20T03:47:20;20.00;51.10
45803;DHT22;31504;51.716;9.184;2023-03-20T03:50:24;20.00;51.10
45803;DHT22;31504;51.716;9.184;2023-03-20T03:53:35;19.90;51.20
45803;DHT22;31504;51.716;9.184;2023-03-20T03:56:37;19.90;51.20
45803;DHT22;31504;51.716;9.184;2023-03-20T03:59:40;19.90;51.30
45803;DHT22;31504;51.716;9.184;2023-03-20T04:02:43;19.90;51.30
45803;DHT22;31504;51.716;9.184;2023-03-20T04:05:44;19.80;51.30
45803;DHT22;31504;51.716;9.184;2023-03-20T04:08:45;19.80;51.60
45803;DHT22;31504;51.716;9.184;2023-03-20T04:11:46;19.70;51.70
45803;DHT22;31504;51.716;9.184;2023-03-20T04:14:48;19.60;51.90
45803;DHT22;31504;51.716;9.184;2023-03-20T04:17:49;19.60;51.90
45803;DHT22;31504;51.716;9.184;2023-03-20T04:20:49;19.60;51.90
45803;DHT22;31504;51.716;9.184;2023-03-20T04:23:51;19.60;52.20
45803;DHT22;31504;51.716;9.184;2023-03-20T04:26:51;19.60;51.90
45803;DHT22;31504;51.716;9.184;2023-03-20T04:29:51;19.60;52.00
45803;DHT22;31504;51.716;9.184;2023-03-20T04:32:52;19.60;52.00
45803;DHT22;31504;51.716;9.184;2023-03-20T04:35:53;19.60;51.90
45803;DHT22;31504;51.716;9.184;2023-03-20T04:38:53;19.60;52.00
45803;DHT22;31504;51.716;9.184;2023-03-20T04:41:54;19.60;52.00
45803;DHT22;31504;51.716;9.184;2023-03-20T04:44:54;19.60;52.00
45803;DHT22;31504;51.716;9.184;2023-03-20T04:47:54;19.60;52.00
45803;DHT22;31504;51.716;9.184;2023-03-20T04:50:55;19.60;51.90
45803;DHT22;31504;51.716;9.184;2023-03-20T04:53:55;19.60;52.00
45803;DHT22;31504;51.716;9.184;2023-03-20T04:56:56;19.60;51.90
45803;DHT22;31504;51.716;9.184;2023-03-20T04:59:56;19.60;51.90
45803;DHT22;31504;51.716;9.184;2023-03-20T05:02:57;19.60;51.90
45803;DHT22;31504;51.716;9.184;2023-03-20T05:05:57;19.60;51.90
45803;DHT22;31504;51.716;9.184;2023-03-20T05:08:58;19.60;52.00
45803;DHT22;31504;51.716;9.184;2023-03-20T05:11:58;19.60;51.90
45803;DHT22;31504;51.716;9.184;2023-03-20T05:14:59;19.60;51.90
45803;DHT22;31504;51.716;9.184;2023-03-20T05:17:59;19.60;51.90
45803;DHT22;31504;51.716;9.184;2023-03-20T05:21:00;19.60;51.90
45803;DHT22;31504;51.716;9.184;2023-03-20T05:24:01;19.60;52.10
45803;DHT22;31504;51.716;9.184;2023-03-20T05:27:02;19.60;52.00
45803;DHT22;31504;51.716;9.184;2023-03-20T05:30:02;19.60;52.20
45803;DHT22;31504;51.716;9.184;2023-03-20T05:33:03;19.60;52.00
45803;DHT22;31504;51.716;9.184;2023-03-20T05:36:04;19.60;52.00
45803;DHT22;31504;51.716;9.184;2023-03-20T05:39:05;19.60;51.90
45803;DHT22;31504;51.716;9.184;2023-03-20T05:42:05;19.60;52.00
45803;DHT22;31504;51.716;9.184;2023-03-20T05:45:06;19.60;52.00
45803;DHT22;31504;51.716;9.184;2023-03-20T05:48:06;19.60;52.30
45803;DHT22;31504;51.716;9.184;2023-03-20T05:51:07;19.60;52.00
45803;DHT22;31504;51.716;9.184;2023-03-20T05:54:07;19.60;52.10
45803;DHT22;31504;51.716;9.184;2023-03-20T05:57:08;19.60;51.90
45803;DHT22;31504;51.716;9.184;2023-03-20T06:00:08;19.60;51.90
45803;DHT22;31504;51.716;9.184;2023-03-20T06:03:12;19.60;51.90
45803;DHT22;31504;51.716;9.184;2023-03-20T06:06:13;19.60;51.90
45803;DHT22;31504;51.716;9.184;2023-03-20T06:09:13;19.60;51.90
45803;DHT22;31504;51.716;9.184;2023-03-20T06:12:14;19.60;51.90
45803;DHT22;31504;51.716;9.184;2023-03-20T06:15:15;19.60;51.90
45803;DHT22;31504;51.716;9.184;2023-03-20T06:18:15;19.60;51.80
45803;DHT22;31504;51.716;9.184;2023-03-20T06:21:16;19.60;51.90
45803;DHT22;31504;51.716;9.184;2023-03-20T06:24:16;19.60;51.80
45803;DHT22;31504;51.716;9.184;2023-03-20T06:27:17;19.60;51.80
45803;DHT22;31504;51.716;9.184;2023-03-20T06:30:17;19.60;51.90
45803;DHT22;31504;51.716;9.184;2023-03-20T06:33:18;19.60;51.90
45803;DHT22;31504;51.716;9.184;2023-03-20T06:36:18;19.60;51.90
45803;DHT22;31504;51.716;9.184;2023-03-20T06:39:19;19.60;51.90
45803;DHT22;31504;51.716;9.184;2023-03-20T06:42:19;19.60;51.80
45803;DHT22;31504;51.716;9.184;2023-03-20T06:45:20;19.50;51.80
45803;DHT22;31504;51.716;9.184;2023-03-20T06:48:20;19.60;51.80
45803;DHT22;31504;51.716;9.184;2023-03-20T06:51:21;19.60;51.90
45803;DHT22;31504;51.716;9.184;2023-03-20T06:54:21;19.50;51.80
45803;DHT22;31504;51.716;9.184;2023-03-20T06:57:22;19.60;51.90
45803;DHT22;31504;51.716;9.184;2023-03-20T07:00:22;19.50;51.90
45803;DHT22;31504;51.716;9.184;2023-03-20T07:03:23;19.60;51.90
45803;DHT22;31504;51.716;9.184;2023-03-20T07:06:23;19.50;51.80
45803;DHT22;31504;51.716;9.184;2023-03-20T07:09:24;19.60;51.80
45803;DHT22;31504;51.716;9.184;2023-03-20T07:12:25;19.60;51.90
45803;DHT22;31504;51.716;9.184;2023-03-20T07:15:27;19.60;51.80
45803;DHT22;31504;51.716;9.184;2023-03-20T07:18:29;19.60;51.90
45803;DHT22;31504;51.716;9.184;2023-03-20T07:21:29;19.60;51.90
45803;DHT22;31504;51.716;9.184;2023-03-20T07:24:30;19.60;51.80
45803;DHT22;31504;51.716;9.184;2023-03-20T07:27:31;19.60;52.00
45803;DHT22;31504;51.716;9.184;2023-03-20T07:30:31;19.60;51.90
45803;DHT22;31504;51.716;9.184;2023-03-20T07:33:32;19.60;51.80
45803;DHT22;31504;51.716;9.184;2023-03-20T07:36:32;19.60;51.80
45803;DHT22;31504;51.716;9.184;2023-03-20T07:39:33;19.50;52.00
45803;DHT22;31504;51.716;9.184;2023-03-20T07:42:33;19.60;52.00
45803;DHT22;31504;51.716;9.184;2023-03-20T07:45:34;19.50;51.80
45803;DHT22;31504;51.716;9.184;2023-03-20T07:48:34;19.50;51.90
45803;DHT22;31504;51.716;9.184;2023-03-20T07:51:35;19.50;51.80
45803;DHT22;31504;51.716;9.184;2023-03-20T07:54:35;19.50;51.90
45803;DHT22;31504;51.716;9.184;2023-03-20T07:57:36;19.50;51.90
45803;DHT22;31504;51.716;9.184;2023-03-20T08:00:36;19.50;51.90
45803;DHT22;31504;51.716;9.184;2023-03-20T08:03:37;19.50;51.90
45803;DHT22;31504;51.716;9.184;2023-03-20T08:06:38;19.50;52.00
45803;DHT22;31504;51.716;9.184;2023-03-20T08:09:39;19.50;51.80
45803;DHT22;31504;51.716;9.184;2023-03-20T08:12:40;19.50;51.70
45803;DHT22;31504;51.716;9.184;2023-03-20T08:15:40;19.50;51.70
45803;DHT22;31504;51.716;9.184;2023-03-20T08:18:41;19.50;51.90
45803;DHT22;31504;51.716;9.184;2023-03-20T08:21:41;19.50;51.70
45803;DHT22;31504;51.716;9.184;2023-03-20T08:24:42;19.60;51.80
45803;DHT22;31504;51.716;9.184;2023-03-20T08:27:42;19.50;51.80
45803;DHT22;31504;51.716;9.184;2023-03-20T08:30:43;19.50;51.90
45803;DHT22;31504;51.716;9.184;2023-03-20T08:33:44;19.50;51.80
45803;DHT22;31504;51.716;9.184;2023-03-20T08:36:44;19.50;51.80
45803;DHT22;31504;51.716;9.184;2023-03-20T08:39:45;19.50;51.70
45803;DHT22;31504;51.716;9.184;2023-03-20T08:42:45;19.50;51.70
45803;DHT22;31504;51.716;9.184;2023-03-20T08:45:46;19.50;51.70
45803;DHT22;31504;51.716;9.184;2023-03-20T08:48:46;19.50;51.70
45803;DHT22;31504;51.716;9.184;2023-03-20T08:51:47;19.50;51.60
45803;DHT22;31504;51.716;9.184;2023-03-20T08:54:47;19.60;51.80
45803;DHT22;31504;51.716;9.184;2023-03-20T08:57:47;19.50;51.80
45803;DHT22;31504;51.716;9.184;2023-03-20T09:00:48;19.50;51.70
45803;DHT22;31504;51.716;9.184;2023-03-20T09:03:48;19.50;51.70
45803;DHT22;31504;51.716;9.184;2023-03-20T09:06:49;19.50;51.70
45803;DHT22;31504;51.716;9.184;2023-03-20T09:09:49;19.50;52.00
45803;DHT22;31504;51.716;9.184;2023-03-20T09:12:50;19.50;51.70
45803;DHT22;31504;51.716;9.184;2023-03-20T09:15:51;19.50;51.70
45803;DHT22;31504;51.716;9.184;2023-03-20T09:18:51;19.50;51.70
45803;DHT22;31504;51.716;9.184;2023-03-20T09:21:52;19.50;51.60
45803;DHT22;31504;51.716;9.184;2023-03-20T09:24:52;19.50;51.60
45803;DHT22;31504;51.716;9.184;2023-03-20T09:27:53;19.50;51.70
45803;DHT22;31504;51.716;9.184;2023-03-20T09:30:56;19.50;51.60
45803;DHT22;31504;51.716;9.184;2023-03-20T09:33:57;19.50;52.10
45803;DHT22;31504;51.716;9.184;2023-03-20T09:36:57;19.50;51.60
45803;DHT22;31504;51.716;9.184;2023-03-20T09:39:58;19.60;51.60
45803;DHT22;31504;51.716;9.184;2023-03-20T09:52:31;19.90;50.70
45803;DHT22;31504;51.716;9.184;2023-03-20T09:55:35;20.00;50.70
45803;DHT22;31504;51.716;9.184;2023-03-20T09:58:36;20.00;50.50
45803;DHT22;31504;51.716;9.184;2023-03-20T10:01:41;19.90;50.60
45803;DHT22;31504;51.716;9.184;2023-03-20T10:04:43;20.00;50.60
45803;DHT22;31504;51.716;9.184;2023-03-20T10:07:46;19.90;50.70
45803;DHT22;31504;51.716;9.184;2023-03-20T10:10:51;19.80;50.80
45803;DHT22;31504;51.716;9.184;2023-03-20T10:23:35;19.80;50.60
45803;DHT22;31504;51.716;9.184;2023-03-20T10:26:37;20.00;50.30
45803;DHT22;31504;51.716;9.184;2023-03-20T10:32:44;19.90;50.50
45803;DHT22;31504;51.716;9.184;2023-03-20T10:39:17;19.90;50.50
45803;DHT22;31504;51.716;9.184;2023-03-20T10:42:21;19.90;50.40
45803;DHT22;31504;51.716;9.184;2023-03-20T10:49:13;20.20;50.00
45803;DHT22;31504;51.716;9.184;2023-03-20T10:51:54;20.20;49.60
45803;DHT22;31504;51.716;9.184;2023-03-20T10:54:56;20.20;49.90
45803;DHT22;31504;51.716;9.184;2023-03-20T10:58:04;20.10;49.70
45803;DHT22;31504;51.716;9.184;2023-03-20T11:01:08;20.10;49.90
45803;DHT22;31504;51.716;9.184;2023-03-20T11:04:08;20.00;49.90
45803;DHT22;31504;51.716;9.184;2023-03-20T11:10:15;19.90;50.40
45803;DHT22;31504;51.716;9.184;2023-03-20T11:13:30;19.80;50.40
45803;DHT22;31504;51.716;9.184;2023-03-20T11:16:32;19.70;50.80
45803;DHT22;31504;51.716;9.184;2023-03-20T11:19:36;19.70;50.90
45803;DHT22;31504;51.716;9.184;2023-03-20T11:22:37;19.60;51.00
45803;DHT22;31504;51.716;9.184;2023-03-20T11:25:38;19.60;51.00
45803;DHT22;31504;51.716;9.184;2023-03-20T11:28:47;19.60;51.10
45803;DHT22;31504;51.716;9.184;2023-03-20T11:31:49;19.50;51.10
45803;DHT22;31504;51.716;9.184;2023-03-20T11:34:50;19.60;51.10
45803;DHT22;31504;51.716;9.184;2023-03-20T11:37:51;19.60;51.00
45803;DHT22;31504;51.716;9.184;2023-03-20T11:40:52;19.60;51.00
45803;DHT22;31504;51.716;9.184;2023-03-20T11:43:54;19.60;51.00
45803;DHT22;31504;51.716;9.184;2023-03-20T11:46:58;19.60;51.20
45803;DHT22;31504;51.716;9.184;2023-03-20T11:50:00;19.50;51.10
45803;DHT22;31504;51.716;9.184;2023-03-20T11:53:01;19.50;51.10
45803;DHT22;31504;51.716;9.184;2023-03-20T12:02:16;19.50;51.20
45803;DHT22;31504;51.716;9.184;2023-03-20T12:08:19;19.50;51.20
45803;DHT22;31504;51.716;9.184;2023-03-20T12:11:35;19.50;51.10
45803;DHT22;31504;51.716;9.184;2023-03-20T12:14:46;19.50;51.10
45803;DHT22;31504;51.716;9.184;2023-03-20T12:21:05;19.50;51.10
45803;DHT22;31504;51.716;9.184;2023-03-20T12:24:25;19.50;51.20
45803;DHT22;31504;51.716;9.184;2023-03-20T12:27:27;19.60;51.20
45803;DHT22;31504;51.716;9.184;2023-03-20T12:33:57;19.50;51.10
45803;DHT22;31504;51.716;9.184;2023-03-20T12:37:00;19.50;51.20
45803;DHT22;31504;51.716;9.184;2023-03-20T12:40:01;19.50;51.20
45803;DHT22;31504;51.716;9.184;2023-03-20T12:43:04;19.50;51.20
45803;DHT22;31504;51.716;9.184;2023-03-20T12:49:24;19.60;50.90
45803;DHT22;31504;51.716;9.184;2023-03-20T12:59:12;19.90;49.90
45803;DHT22;31504;51.716;9.184;2023-03-20T13:08:48;20.10;49.70
45803;DHT22;31504;51.716;9.184;2023-03-20T13:11:55;20.20;49.60
45803;DHT22;31504;51.716;9.184;2023-03-20T13:21:23;20.30;49.50
45803;DHT22;31504;51.716;9.184;2023-03-20T13:24:29;20.20;49.50
45803;DHT22;31504;51.716;9.184;2023-03-20T13:27:33;20.20;49.90
45803;DHT22;31504;51.716;9.184;2023-03-20T13:30:39;20.20;49.70
45803;DHT22;31504;51.716;9.184;2023-03-20T13:33:49;20.20;49.60
45803;DHT22;31504;51.716;9.184;2023-03-20T13:40:05;20.40;49.30
45803;DHT22;31504;51.716;9.184;2023-03-20T13:43:27;20.40;49.40
45803;DHT22;31504;51.716;9.184;2023-03-20T13:46:32;20.50;49.20
45803;DHT22;31504;51.716;9.184;2023-03-20T13:49:52;20.30;49.50
45803;DHT22;31504;51.716;9.184;2023-03-20T13:53:00;20.40;49.40
45803;DHT22;31504;51.716;9.184;2023-03-20T13:59:23;20.70;48.60
45803;DHT22;31504;51.716;9.184;2023-03-20T14:05:28;20.60;48.60
45803;DHT22;31504;51.716;9.184;2023-03-20T14:08:33;20.60;48.50
45803;DHT22;31504;51.716;9.184;2023-03-20T14:11:37;20.50;48.50
45803;DHT22;31504;51.716;9.184;2023-03-20T14:14:39;20.60;48.60
45803;DHT22;31504;51.716;9.184;2023-03-20T14:17:44;20.60;48.70
45803;DHT22;31504;51.716;9.184;2023-03-20T14:20:50;20.50;48.70
45803;DHT22;31504;51.716;9.184;2023-03-20T14:24:05;20.60;48.60
45803;DHT22;31504;51.716;9.184;2023-03-20T14:27:11;20.60;48.30
45803;DHT22;31504;51.716;9.184;2023-03-20T14:33:29;20.50;48.70
45803;DHT22;31504;51.716;9.184;2023-03-20T14:36:43;20.30;49.10
45803;DHT22;31504;51.716;9.184;2023-03-20T14:39:49;20.20;49.30
45803;DHT22;31504;51.716;9.184;2023-03-20T14:45:58;20.40;48.80
45803;DHT22;31504;51.716;9.184;2023-03-20T14:49:02;20.10;49.50
45803;DHT22;31504;51.716;9.184;2023-03-20T15:04:39;20.20;49.20
45803;DHT22;31504;51.716;9.184;2023-03-20T15:07:41;20.40;48.90
45803;DHT22;31504;51.716;9.184;2023-03-20T15:10:46;20.30;48.80
45803;DHT22;31504;51.716;9.184;2023-03-20T15:13:48;20.30;48.70
45803;DHT22;31504;51.716;9.184;2023-03-20T15:16:53;20.40;48.70
45803;DHT22;31504;51.716;9.184;2023-03-20T15:20:29;20.40;48.80
45803;DHT22;31504;51.716;9.184;2023-03-20T15:23:22;20.40;48.90
45803;DHT22;31504;51.716;9.184;2023-03-20T15:26:25;20.20;49.00
45803;DHT22;31504;51.716;9.184;2023-03-20T15:29:25;20.00;49.40
45803;DHT22;31504;51.716;9.184;2023-03-20T15:32:26;20.00;49.60
45803;DHT22;31504;51.716;9.184;2023-03-20T15:35:27;20.00;49.40
45803;DHT22;31504;51.716;9.184;2023-03-20T15:38:29;20.00;49.50
45803;DHT22;31504;51.716;9.184;2023-03-20T15:41:32;19.90;49.70
45803;DHT22;31504;51.716;9.184;2023-03-20T15:44:34;19.70;49.90
45803;DHT22;31504;51.716;9.184;2023-03-20T15:47:35;19.70;49.80
45803;DHT22;31504;51.716;9.184;2023-03-20T15:50:38;19.90;49.60
45803;DHT22;31504;51.716;9.184;2023-03-20T15:53:39;19.80;49.70
45803;DHT22;31504;51.716;9.184;2023-03-20T15:56:40;19.70;49.70
45803;DHT22;31504;51.716;9.184;2023-03-20T15:59:44;19.80;49.70
45803;DHT22;31504;51.716;9.184;2023-03-20T16:02:45;19.90;49.60
45803;DHT22;31504;51.716;9.184;2023-03-20T16:05:47;19.80;49.70
45803;DHT22;31504;51.716;9.184;2023-03-20T16:08:55;19.90;49.60
45803;DHT22;31504;51.716;9.184;2023-03-20T16:11:57;19.90;50.20
45803;DHT22;31504;51.716;9.184;2023-03-20T16:14:58;19.80;49.60
45803;DHT22;31504;51.716;9.184;2023-03-20T16:18:00;19.90;49.60
45803;DHT22;31504;51.716;9.184;2023-03-20T16:21:03;19.80;49.60
45803;DHT22;31504;51.716;9.184;2023-03-20T16:24:08;19.80;49.70
45803;DHT22;31504;51.716;9.184;2023-03-20T16:27:12;19.80;49.80
45803;DHT22;31504;51.716;9.184;2023-03-20T16:30:16;19.70;49.80
45803;DHT22;31504;51.716;9.184;2023-03-20T16:33:17;19.70;50.00
45803;DHT22;31504;51.716;9.184;2023-03-20T16:36:19;19.70;50.00
45803;DHT22;31504;51.716;9.184;2023-03-20T16:39:22;19.70;50.00
45803;DHT22;31504;51.716;9.184;2023-03-20T16:42:24;19.70;50.00
45803;DHT22;31504;51.716;9.184;2023-03-20T16:45:28;19.70;49.90
45803;DHT22;31504;51.716;9.184;2023-03-20T16:48:29;19.70;49.90
45803;DHT22;31504;51.716;9.184;2023-03-20T16:51:30;19.80;49.60
45803;DHT22;31504;51.716;9.184;2023-03-20T16:54:33;19.80;49.80
45803;DHT22;31504;51.716;9.184;2023-03-20T16:57:34;19.70;49.90
45803;DHT22;31504;51.716;9.184;2023-03-20T17:00:50;19.70;50.00
45803;DHT22;31504;51.716;9.184;2023-03-20T17:03:54;19.70;50.00
45803;DHT22;31504;51.716;9.184;2023-03-20T17:06:59;19.70;50.40
45803;DHT22;31504;51.716;9.184;2023-03-20T17:13:15;19.60;50.00
45803;DHT22;31504;51.716;9.184;2023-03-20T17:16:19;19.70;49.90
45803;DHT22;31504;51.716;9.184;2023-03-20T17:19:20;19.80;49.80
45803;DHT22;31504;51.716;9.184;2023-03-20T17:22:21;19.70;49.80
45803;DHT22;31504;51.716;9.184;2023-03-20T17:25:22;19.70;49.80
45803;DHT22;31504;51.716;9.184;2023-03-20T17:28:23;19.80;49.70
45803;DHT22;31504;51.716;9.184;2023-03-20T17:31:26;19.90;49.40
45803;DHT22;31504;51.716;9.184;2023-03-20T17:34:26;19.90;49.40
45803;DHT22;31504;51.716;9.184;2023-03-20T17:37:27;19.90;49.50
45803;DHT22;31504;51.716;9.184;2023-03-20T17:40:28;19.80;49.50
45803;DHT22;31504;51.716;9.184;2023-03-20T17:43:28;19.80;49.50
45803;DHT22;31504;51.716;9.184;2023-03-20T17:46:29;19.80;49.40
45803;DHT22;31504;51.716;9.184;2023-03-20T17:49:30;19.90;49.50
45803;DHT22;31504;51.716;9.184;2023-03-20T17:52:31;19.90;49.30
45803;DHT22;31504;51.716;9.184;2023-03-20T17:55:31;19.90;49.20
45803;DHT22;31504;51.716;9.184;2023-03-20T17:58:32;20.00;49.20
45803;DHT22;31504;51.716;9.184;2023-03-20T18:01:32;20.00;49.00
45803;DHT22;31504;51.716;9.184;2023-03-20T18:04:33;20.00;48.90
45803;DHT22;31504;51.716;9.184;2023-03-20T18:07:35;20.00;48.90
45803;DHT22;31504;51.716;9.184;2023-03-20T18:10:35;19.90;49.60
45803;DHT22;31504;51.716;9.184;2023-03-20T18:13:36;19.90;49.00
45803;DHT22;31504;51.716;9.184;2023-03-20T18:16:36;20.00;49.10
45803;DHT22;31504;51.716;9.184;2023-03-20T18:19:37;20.00;49.00
45803;DHT22;31504;51.716;9.184;2023-03-20T18:22:37;20.00;49.00
45803;DHT22;31504;51.716;9.184;2023-03-20T18:25:38;20.00;49.00
45803;DHT22;31504;51.716;9.184;2023-03-20T18:28:38;20.00;48.90
45803;DHT22;31504;51.716;9.184;2023-03-20T18:31:39;20.00;48.80
45803;DHT22;31504;51.716;9.184;2023-03-20T18:34:40;20.10;48.60
45803;DHT22;31504;51.716;9.184;2023-03-20T18:37:41;20.10;48.50
45803;DHT22;31504;51.716;9.184;2023-03-20T18:40:41;20.20;48.50
45803;DHT22;31504;51.716;9.184;2023-03-20T18:43:46;20.10;48.60
45803;DHT22;31504;51.716;9.184;2023-03-20T18:46:47;20.00;48.80
45803;DHT22;31504;51.716;9.184;2023-03-20T18:49:47;20.00;49.00
45803;DHT22;31504;51.716;9.184;2023-03-20T18:52:48;19.90;48.90
45803;DHT22;31504;51.716;9.184;2023-03-20T18:55:48;19.70;49.40
45803;DHT22;31504;51.716;9.184;2023-03-20T18:58:49;19.60;49.80
45803;DHT22;31504;51.716;9.184;2023-03-20T19:01:49;19.50;49.90
45803;DHT22;31504;51.716;9.184;2023-03-20T19:04:52;19.50;50.00
45803;DHT22;31504;51.716;9.184;2023-03-20T19:07:52;19.50;50.00
45803;DHT22;31504;51.716;9.184;2023-03-20T19:10:53;19.50;50.10
45803;DHT22;31504;51.716;9.184;2023-03-20T19:13:53;19.40;50.00
45803;DHT22;31504;51.716;9.184;2023-03-20T19:16:53;19.50;50.00
45803;DHT22;31504;51.716;9.184;2023-03-20T19:19:55;19.40;50.00
45803;DHT22;31504;51.716;9.184;2023-03-20T19:22:55;19.40;50.10
45803;DHT22;31504;51.716;9.184;2023-03-20T19:25:56;19.40;50.00
45803;DHT22;31504;51.716;9.184;2023-03-20T19:28:57;19.40;50.10
45803;DHT22;31504;51.716;9.184;2023-03-20T19:31:58;19.40;50.00
45803;DHT22;31504;51.716;9.184;2023-03-20T19:34:58;19.40;50.00
45803;DHT22;31504;51.716;9.184;2023-03-20T19:37:59;19.40;50.00
45803;DHT22;31504;51.716;9.184;2023-03-20T19:41:00;19.40;50.00
45803;DHT22;31504;51.716;9.184;2023-03-20T19:44:02;19.40;50.00
45803;DHT22;31504;51.716;9.184;2023-03-20T19:47:03;19.40;50.10
45803;DHT22;31504;51.716;9.184;2023-03-20T19:50:03;19.40;50.00
45803;DHT22;31504;51.716;9.184;2023-03-20T19:53:05;19.40;50.00
45803;DHT22;31504;51.716;9.184;2023-03-20T19:56:06;19.40;50.00
45803;DHT22;31504;51.716;9.184;2023-03-20T19:59:06;19.40;50.10
45803;DHT22;31504;51.716;9.184;2023-03-20T20:02:09;19.40;50.10
45803;DHT22;31504;51.716;9.184;2023-03-20T20:05:14;19.40;50.20
45803;DHT22;31504;51.716;9.184;2023-03-20T20:08:17;19.40;50.10
45803;DHT22;31504;51.716;9.184;2023-03-20T20:11:17;19.40;50.20
45803;DHT22;31504;51.716;9.184;2023-03-20T20:14:18;19.40;50.20
45803;DHT22;31504;51.716;9.184;2023-03-20T20:17:18;19.40;50.10
45803;DHT22;31504;51.716;9.184;2023-03-20T20:20:19;19.40;50.10
45803;DHT22;31504;51.716;9.184;2023-03-20T20:23:21;19.40;50.20
45803;DHT22;31504;51.716;9.184;2023-03-20T20:26:22;19.40;50.30
45803;DHT22;31504;51.716;9.184;2023-03-20T20:29:22;19.40;50.30
45803;DHT22;31504;51.716;9.184;2023-03-20T20:32:26;19.40;50.30
45803;DHT22;31504;51.716;9.184;2023-03-20T20:35:27;19.40;50.30
45803;DHT22;31504;51.716;9.184;2023-03-20T20:38:27;19.40;50.40
45803;DHT22;31504;51.716;9.184;2023-03-20T20:41:28;19.40;50.30
45803;DHT22;31504;51.716;9.184;2023-03-20T20:44:28;19.40;50.30
45803;DHT22;31504;51.716;9.184;2023-03-20T20:47:29;19.40;50.40
45803;DHT22;31504;51.716;9.184;2023-03-20T20:50:31;19.40;50.40
45803;DHT22;31504;51.716;9.184;2023-03-20T20:53:31;19.40;50.40
45803;DHT22;31504;51.716;9.184;2023-03-20T20:56:32;19.40;50.40
45803;DHT22;31504;51.716;9.184;2023-03-20T20:59:32;19.40;50.40
45803;DHT22;31504;51.716;9.184;2023-03-20T21:02:36;19.40;50.50
45803;DHT22;31504;51.716;9.184;2023-03-20T21:05:41;19.40;50.50
45803;DHT22;31504;51.716;9.184;2023-03-20T21:08:42;19.40;50.40
45803;DHT22;31504;51.716;9.184;2023-03-20T21:11:42;19.40;50.40
45803;DHT22;31504;51.716;9.184;2023-03-20T21:14:43;19.40;50.50
45803;DHT22;31504;51.716;9.184;2023-03-20T21:17:45;19.40;50.40
45803;DHT22;31504;51.716;9.184;2023-03-20T21:20:46;19.40;50.50
45803;DHT22;31504;51.716;9.184;2023-03-20T21:23:47;19.40;50.70